Aswan, Egypt

7:49 PM EET on July 24, 2014 (GMT +0200)
Aswan International (HESN) Elev 636 ft | 23.96 °N, 32.82 °E | Change Station

Current weather conditions updated 49 minutes ago

Clear
Clear
102 °F
Feels Like 102 °F
N
9
Wind Variable Wind from West

Tomorrow is forecast to be nearly the same temperature as today.

Today
High -- | Low -- °F
--% Chance of Precip.
Yesterday
High -- | Low -- °F
Precip. -- in
5:14 AM 6:36 PM
Waning Crescent, 4% visible
Pressure 29.68 in
Visibility -9999.0 miles
Clouds
Dew Point 36 °F
Humidity 10%
Rainfall 0.00 in
Snow Depth Not available.
UV Not available.
Pollen Not available.
Air Quality Not available.
Flu Activity Not available.
METAR HESN 241700Z 26008KT CAVOK 39/02 Q1005 NOSIG

More Conditions Fewer Conditions

Pressure 29.68 in
Visibility -9999.0 miles
Clouds
Dew Point 36 °F
Humidity 10%
Rainfall 0.00 in
Snow Depth Not available.
UV Not available.
Pollen Not available.
Air Quality Not available.
Flu Activity Not available.
METAR HESN 241700Z 26008KT CAVOK 39/02 Q1005 NOSIG

More Conditions Fewer Conditions

10-Day Weather Forecast

Almanac

Astronomy

Jul. 24, 2014 Rise Set
Actual Time 5:14 AM EET 6:36 PM EET
Civil Twilight 4:49 AM EET 7:00 PM EET
Nautical Twilight 4:20 AM EET 7:30 PM EET
Astronomical Twilight 3:49 AM EET 8:00 PM EET
Moon 3:03 AM EET 4:38 PM EET
Length of Visible Light 14h 11m
Length of Day
13h 21m
Tomorrow will be 0m 53s shorter.
Waning Crescent, 4% of the Moon is Illuminated
Today
Waning Crescent
Jul 26
New
Aug 3
First Quarter
Aug 10
Full
Aug 17
Last Quarter

Today's Extremes

Country Highs Country Lows

Community

WunderPhotos

Upload Photos

1,737,079 photos uploaded!

Nearby

Snow Depth

Not available.

Earthquake Activity

City Distance Mag. Time & Date
No recent earthquake activity has been reported nearby.
Minimum magnitude displayed is 2.5.

Coastal Water Temperatures

Place Temperature
No Stations Reporting

Nearby Weather Stations

There are no personal weather stations in this area.